Time;durP1;ratioP1;P1;durP2;ratioP2;P2;SDS_P1;SDS_P2;PMS_P1;PMS_P2;Temp;Humidity;BMP_temperature;BMP_pressure;BME280_temperature;BME280_humidity;BME280_pressure;Samples;Min_cycle;Max_cycle;Signal;HPM_P1;HPM_P2
2021/07/07 00:01:11;;;;;;;1.10;0.88;;;;;;;;;;6215824;23;20482;-48
2021/07/07 00:03:37;;;;;;;1.60;0.90;;;;;;;;;;6215609;23;20015;-47
2021/07/07 00:06:03;;;;;;;1.58;0.90;;;;;;;;;;6216089;23;20287;-50
2021/07/07 00:08:29;;;;;;;1.98;0.80;;;;;;;;;;6215366;23;20020;-47
2021/07/07 00:10:55;;;;;;;0.90;0.80;;;;;;;;;;6215652;23;19996;-47
2021/07/07 00:13:21;;;;;;;7.88;1.60;;;;;;;;;;6216037;23;20424;-50
2021/07/07 00:15:47;;;;;;;3.38;0.95;;;;;;;;;;6215547;23;20000;-48
2021/07/07 00:18:14;;;;;;;1.20;0.93;;;;;;;;;;6215698;23;20099;-48
2021/07/07 00:20:54;;;;;;;5.63;1.35;;;;;;;;;;6215969;23;20005;-48
2021/07/07 00:23:20;;;;;;;1.85;0.88;;;;;;;;;;6216086;23;20005;-48
2021/07/07 00:25:47;;;;;;;3.03;1.25;;;;;;;;;;6215420;23;20006;-47
2021/07/07 00:28:13;;;;;;;1.75;1.13;;;;;;;;;;6215395;23;20115;-49
2021/07/07 00:30:39;;;;;;;1.95;0.93;;;;;;;;;;6215540;23;20028;-51
2021/07/07 00:33:05;;;;;;;3.30;1.20;;;;;;;;;;6215461;23;20047;-50
2021/07/07 00:35:31;;;;;;;1.52;0.90;;;;;;;;;;6215555;23;20414;-48
2021/07/07 00:37:57;;;;;;;1.42;1.13;;;;;;;;;;6215377;23;20064;-48
2021/07/07 00:40:23;;;;;;;2.13;1.00;;;;;;;;;;6215163;23;20301;-48
2021/07/07 00:42:49;;;;;;;2.72;1.20;;;;;;;;;;6215766;23;20004;-48
2021/07/07 00:45:15;;;;;;;3.05;1.20;;;;;;;;;;6215242;23;20087;-48
2021/07/07 00:47:42;;;;;;;1.73;0.90;;;;;;;;;;6214899;23;20083;-49
2021/07/07 00:50:08;;;;;;;1.83;0.90;;;;;;;;;;6215205;23;20023;-50
2021/07/07 00:52:35;;;;;;;3.10;1.23;;;;;;;;;;6215550;23;20000;-50
2021/07/07 00:55:05;;;;;;;2.63;1.20;;;;;;;;;;6215384;23;20087;-48
2021/07/07 00:57:34;;;;;;;2.83;1.30;;;;;;;;;;6214696;23;20082;-48
2021/07/07 01:00:01;;;;;;;4.45;1.35;;;;;;;;;;6215480;23;20011;-48
2021/07/07 01:02:27;;;;;;;1.90;1.23;;;;;;;;;;6215579;23;20088;-52
2021/07/07 01:04:53;;;;;;;2.17;1.25;;;;;;;;;;6215458;23;20394;-50
2021/07/07 01:07:19;;;;;;;2.75;1.15;;;;;;;;;;6215206;23;20036;-48
2021/07/07 01:09:45;;;;;;;3.25;1.10;;;;;;;;;;6214129;23;20054;-48
2021/07/07 01:12:11;;;;;;;1.73;1.27;;;;;;;;;;6215002;23;20470;-49
2021/07/07 01:14:37;;;;;;;1.88;1.20;;;;;;;;;;6215454;23;20032;-48
2021/07/07 01:17:04;;;;;;;1.48;1.02;;;;;;;;;;6215215;23;20012;-48
2021/07/07 01:19:30;;;;;;;2.03;1.27;;;;;;;;;;6215111;23;20017;-48
2021/07/07 01:21:56;;;;;;;4.43;1.38;;;;;;;;;;6215328;23;20000;-48
2021/07/07 01:24:22;;;;;;;2.53;1.50;;;;;;;;;;6215186;23;20406;-48
2021/07/07 01:26:48;;;;;;;3.80;1.35;;;;;;;;;;6214949;23;20135;-50
2021/07/07 01:29:15;;;;;;;2.80;1.20;;;;;;;;;;6214871;23;19997;-47
2021/07/07 01:31:45;;;;;;;2.58;1.48;;;;;;;;;;6214759;23;19997;-49
2021/07/07 01:34:11;;;;;;;1.83;1.10;;;;;;;;;;6215513;23;20019;-49
2021/07/07 01:36:37;;;;;;;3.08;1.30;;;;;;;;;;6214807;23;20012;-48
2021/07/07 01:39:07;;;;;;;5.97;1.25;;;;;;;;;;6214429;23;20004;-48
2021/07/07 01:41:33;;;;;;;1.80;1.20;;;;;;;;;;6214782;23;20360;-48
2021/07/07 01:43:59;;;;;;;1.60;1.10;;;;;;;;;;6214855;23;20015;-48
2021/07/07 01:46:26;;;;;;;3.03;1.17;;;;;;;;;;6214683;23;20013;-48
2021/07/07 01:48:52;;;;;;;1.73;1.13;;;;;;;;;;6214189;23;20032;-48
2021/07/07 01:51:19;;;;;;;1.85;1.27;;;;;;;;;;6214963;23;20091;-49
2021/07/07 01:53:45;;;;;;;3.15;1.20;;;;;;;;;;6214857;23;20599;-48
2021/07/07 01:56:14;;;;;;;3.85;1.40;;;;;;;;;;6214675;23;20027;-48
2021/07/07 01:58:40;;;;;;;3.15;1.13;;;;;;;;;;6214465;23;20449;-48
2021/07/07 02:01:07;;;;;;;3.33;1.40;;;;;;;;;;6214419;23;20005;-49
2021/07/07 02:03:33;;;;;;;2.20;1.23;;;;;;;;;;6214723;23;20004;-48
2021/07/07 02:05:59;;;;;;;2.78;1.13;;;;;;;;;;6214674;23;20036;-51
2021/07/07 02:08:25;;;;;;;3.63;1.60;;;;;;;;;;6214018;23;20028;-48
2021/07/07 02:10:51;;;;;;;10.77;1.58;;;;;;;;;;6214463;23;20000;-48
2021/07/07 02:13:17;;;;;;;2.10;1.38;;;;;;;;;;6214902;23;20313;-48
2021/07/07 02:15:43;;;;;;;6.25;1.55;;;;;;;;;;6214813;23;20004;-48
2021/07/07 02:18:10;;;;;;;1.75;1.20;;;;;;;;;;6214099;23;20000;-48
2021/07/07 02:20:42;;;;;;;4.00;1.52;;;;;;;;;;6214859;23;20090;-51
2021/07/07 02:23:09;;;;;;;3.08;1.40;;;;;;;;;;6214796;23;20015;-48
2021/07/07 02:25:37;;;;;;;1.85;1.17;;;;;;;;;;6214476;23;20000;-47
2021/07/07 02:28:03;;;;;;;3.47;1.58;;;;;;;;;;6213822;23;20001;-47
2021/07/07 02:30:30;;;;;;;5.97;1.40;;;;;;;;;;6213250;23;20055;-48
2021/07/07 02:32:57;;;;;;;1.98;1.60;;;;;;;;;;6214101;23;20005;-49
2021/07/07 02:35:24;;;;;;;5.32;1.40;;;;;;;;;;6214070;23;20040;-48
2021/07/07 02:37:53;;;;;;;3.17;1.30;;;;;;;;;;6213520;23;20365;-48
2021/07/07 02:40:19;;;;;;;1.70;1.10;;;;;;;;;;6214758;23;20376;-48
2021/07/07 02:42:45;;;;;;;2.17;1.52;;;;;;;;;;6214036;23;20027;-48
2021/07/07 02:45:12;;;;;;;2.03;1.23;;;;;;;;;;6214426;23;20009;-48
2021/07/07 02:47:42;;;;;;;2.60;1.17;;;;;;;;;;6213648;23;20095;-49
2021/07/07 02:50:09;;;;;;;1.73;1.17;;;;;;;;;;6214287;23;20051;-48
2021/07/07 02:52:37;;;;;;;3.15;1.50;;;;;;;;;;6214317;23;20024;-47
2021/07/07 02:55:03;;;;;;;2.42;1.30;;;;;;;;;;6214311;23;20036;-49
2021/07/07 02:57:55;;;;;;;3.83;1.52;;;;;;;;;;6213724;23;20008;-47
2021/07/07 03:00:16;;;;;;;3.55;1.50;;;;;;;;;;6213669;23;20008;-48
2021/07/07 03:02:42;;;;;;;6.68;1.73;;;;;;;;;;6214306;23;20024;-49
2021/07/07 03:05:08;;;;;;;6.65;1.83;;;;;;;;;;6214211;23;20080;-48
2021/07/07 03:07:34;;;;;;;2.85;1.80;;;;;;;;;;6187251;23;20004;-48
2021/07/07 03:10:03;;;;;;;4.47;1.73;;;;;;;;;;6214213;23;20000;-48
2021/07/07 03:12:29;;;;;;;2.58;1.55;;;;;;;;;;6214003;23;20007;-50
2021/07/07 03:14:55;;;;;;;4.03;1.42;;;;;;;;;;6214326;23;19997;-47
2021/07/07 03:17:21;;;;;;;2.75;1.40;;;;;;;;;;6214368;23;20004;-49
2021/07/07 03:19:47;;;;;;;3.30;1.30;;;;;;;;;;6213753;23;20000;-48
2021/07/07 03:22:13;;;;;;;4.78;2.03;;;;;;;;;;6214485;23;20380;-47
2021/07/07 03:24:39;;;;;;;4.30;1.90;;;;;;;;;;6214334;23;20008;-48
2021/07/07 03:27:05;;;;;;;3.53;2.00;;;;;;;;;;6187139;23;20059;-49
2021/07/07 03:29:31;;;;;;;5.53;1.73;;;;;;;;;;6213446;23;20075;-49
2021/07/07 03:31:57;;;;;;;4.65;1.58;;;;;;;;;;6214595;23;19997;-47
2021/07/07 03:34:23;;;;;;;3.35;1.70;;;;;;;;;;6216219;23;20008;-47
2021/07/07 03:36:49;;;;;;;9.25;2.05;;;;;;;;;;6216043;23;20008;-48
2021/07/07 03:39:14;;;;;;;3.00;1.58;;;;;;;;;;6215773;23;20000;-49
2021/07/07 03:41:40;;;;;;;2.97;1.40;;;;;;;;;;6216038;23;20001;-51
2021/07/07 03:44:06;;;;;;;4.88;1.42;;;;;;;;;;6216130;23;20031;-50
2021/07/07 03:46:33;;;;;;;3.33;1.52;;;;;;;;;;6215951;23;20305;-50
2021/07/07 03:48:59;;;;;;;3.28;1.80;;;;;;;;;;6215787;23;20011;-51
2021/07/07 03:51:25;;;;;;;7.10;1.83;;;;;;;;;;6216482;23;20001;-49
2021/07/07 03:53:51;;;;;;;2.85;1.60;;;;;;;;;;6216050;23;20029;-49
2021/07/07 03:56:17;;;;;;;5.70;1.83;;;;;;;;;;6215885;23;20079;-48
2021/07/07 03:58:43;;;;;;;2.70;1.80;;;;;;;;;;6215427;23;20031;-49
2021/07/07 04:01:09;;;;;;;3.97;2.47;;;;;;;;;;6216213;23;20000;-48
2021/07/07 04:03:36;;;;;;;2.97;1.60;;;;;;;;;;6215940;23;20433;-48
2021/07/07 04:06:02;;;;;;;5.53;1.95;;;;;;;;;;6215839;23;20001;-47
2021/07/07 04:08:28;;;;;;;4.93;1.90;;;;;;;;;;6215446;23;20048;-47
2021/07/07 04:10:54;;;;;;;5.40;1.90;;;;;;;;;;6215864;23;20024;-48
2021/07/07 04:13:20;;;;;;;3.67;1.90;;;;;;;;;;6215520;23;19997;-49
2021/07/07 04:15:46;;;;;;;6.47;2.25;;;;;;;;;;6216003;23;20004;-48
2021/07/07 04:18:12;;;;;;;3.17;1.73;;;;;;;;;;6215307;23;20004;-48
2021/07/07 04:20:38;;;;;;;4.65;1.85;;;;;;;;;;6216110;23;20662;-48
2021/07/07 04:23:05;;;;;;;4.90;2.08;;;;;;;;;;6216267;23;20405;-48
2021/07/07 04:25:31;;;;;;;3.25;1.80;;;;;;;;;;6216147;23;20008;-48
2021/07/07 04:27:57;;;;;;;5.07;1.88;;;;;;;;;;6214662;23;20001;-47
2021/07/07 04:30:22;;;;;;;4.88;1.70;;;;;;;;;;6215297;23;20005;-47
2021/07/07 04:32:49;;;;;;;3.97;1.85;;;;;;;;;;6215529;23;20325;-48
2021/07/07 04:35:17;;;;;;;2.13;1.65;;;;;;;;;;6215870;23;19996;-48
2021/07/07 04:37:43;;;;;;;2.10;1.75;;;;;;;;;;6215044;23;20004;-48
2021/07/07 04:40:10;;;;;;;5.32;2.17;;;;;;;;;;6215671;23;20082;-48
2021/07/07 04:42:36;;;;;;;3.00;2.10;;;;;;;;;;6215526;23;20009;-48
2021/07/07 04:45:02;;;;;;;2.72;1.60;;;;;;;;;;6215773;23;20306;-48
2021/07/07 04:47:28;;;;;;;3.30;1.92;;;;;;;;;;6215476;23;20352;-50
2021/07/07 04:49:54;;;;;;;3.47;2.35;;;;;;;;;;6215064;23;20008;-48
2021/07/07 04:52:20;;;;;;;3.28;2.08;;;;;;;;;;6215525;23;20299;-47
2021/07/07 04:54:46;;;;;;;3.60;1.95;;;;;;;;;;6215619;23;20004;-48
2021/07/07 04:57:12;;;;;;;4.47;1.92;;;;;;;;;;6215121;23;20004;-47
2021/07/07 04:59:38;;;;;;;7.35;2.03;;;;;;;;;;6215217;23;20004;-47
2021/07/07 05:02:04;;;;;;;3.75;2.20;;;;;;;;;;6214908;23;20031;-49
2021/07/07 05:04:30;;;;;;;3.20;2.35;;;;;;;;;;6215336;23;20005;-48
2021/07/07 05:06:56;;;;;;;3.30;2.10;;;;;;;;;;6215022;23;20011;-47
2021/07/07 05:09:23;;;;;;;4.13;2.22;;;;;;;;;;6215258;23;20314;-48
2021/07/07 05:11:49;;;;;;;4.40;2.15;;;;;;;;;;6214741;23;20084;-48
2021/07/07 05:14:15;;;;;;;4.15;2.33;;;;;;;;;;6215274;23;20012;-50
2021/07/07 05:16:41;;;;;;;4.15;2.33;;;;;;;;;;6215216;23;20008;-48
2021/07/07 05:19:07;;;;;;;3.72;2.30;;;;;;;;;;6215048;23;20004;-48
2021/07/07 05:21:35;;;;;;;3.65;2.33;;;;;;;;;;6215357;23;20008;-49
2021/07/07 05:24:01;;;;;;;6.50;2.47;;;;;;;;;;6215620;23;20058;-51
2021/07/07 05:26:27;;;;;;;3.88;2.30;;;;;;;;;;6214850;23;20009;-51
2021/07/07 05:28:53;;;;;;;4.07;1.67;;;;;;;;;;6214868;23;20051;-47
2021/07/07 05:31:19;;;;;;;4.70;2.40;;;;;;;;;;6214879;23;20055;-51
2021/07/07 05:33:45;;;;;;;4.75;2.25;;;;;;;;;;6215236;23;19996;-48
2021/07/07 05:36:11;;;;;;;3.83;2.30;;;;;;;;;;6215090;23;20000;-49
2021/07/07 05:38:39;;;;;;;4.18;2.08;;;;;;;;;;6214351;23;20047;-48
2021/07/07 05:41:05;;;;;;;7.07;2.63;;;;;;;;;;6214673;23;20421;-49
2021/07/07 05:43:31;;;;;;;3.17;2.28;;;;;;;;;;6214854;23;20051;-48
2021/07/07 05:46:00;;;;;;;4.43;2.10;;;;;;;;;;6215038;23;20001;-47
2021/07/07 05:48:27;;;;;;;7.20;2.33;;;;;;;;;;6214411;23;20032;-49
2021/07/07 05:50:53;;;;;;;4.18;2.13;;;;;;;;;;6214608;23;20329;-47
2021/07/07 05:53:24;;;;;;;3.15;2.30;;;;;;;;;;6215193;23;19996;-49
2021/07/07 05:55:50;;;;;;;5.20;2.17;;;;;;;;;;6214883;23;20058;-47
2021/07/07 05:58:16;;;;;;;6.75;2.50;;;;;;;;;;6214194;23;20004;-49
2021/07/07 06:00:42;;;;;;;5.30;2.45;;;;;;;;;;6214749;23;20305;-48
2021/07/07 06:03:07;;;;;;;4.70;2.13;;;;;;;;;;6214770;23;20016;-47
2021/07/07 06:05:33;;;;;;;3.78;2.22;;;;;;;;;;6214750;23;20004;-49
2021/07/07 06:08:00;;;;;;;2.83;2.13;;;;;;;;;;6214097;23;20012;-47
2021/07/07 06:10:26;;;;;;;6.78;2.35;;;;;;;;;;6214844;23;19999;-51
2021/07/07 06:12:52;;;;;;;6.72;2.00;;;;;;;;;;6214396;23;20007;-49
2021/07/07 06:15:19;;;;;;;2.75;2.00;;;;;;;;;;6214742;23;20005;-49
2021/07/07 06:17:45;;;;;;;5.25;1.63;;;;;;;;;;6214326;23;20401;-47
2021/07/07 06:20:12;;;;;;;7.80;2.10;;;;;;;;;;6214637;23;20016;-48
2021/07/07 06:22:39;;;;;;;4.95;2.00;;;;;;;;;;6214545;23;20055;-49
2021/07/07 06:25:06;;;;;;;5.00;2.08;;;;;;;;;;6214596;23;20556;-47
2021/07/07 06:27:34;;;;;;;4.40;1.70;;;;;;;;;;6214391;23;20009;-51
2021/07/07 06:30:00;;;;;;;3.60;1.90;;;;;;;;;;6214710;23;20007;-48
2021/07/07 06:32:26;;;;;;;5.05;1.80;;;;;;;;;;6214236;23;20000;-50
2021/07/07 06:34:52;;;;;;;3.05;2.00;;;;;;;;;;6214009;23;20030;-48
2021/07/07 06:37:18;;;;;;;5.47;2.10;;;;;;;;;;6214334;23;20009;-49
2021/07/07 06:39:44;;;;;;;5.22;1.83;;;;;;;;;;6214156;23;20008;-47
2021/07/07 06:42:10;;;;;;;4.65;1.80;;;;;;;;;;6214282;23;20425;-49
2021/07/07 06:44:36;;;;;;;4.95;1.90;;;;;;;;;;6212918;23;20001;-48
2021/07/07 06:47:02;;;;;;;3.25;1.88;;;;;;;;;;6213649;23;20009;-49
2021/07/07 06:49:28;;;;;;;2.85;1.60;;;;;;;;;;6213459;23;20039;-48
2021/07/07 06:51:54;;;;;;;7.70;1.88;;;;;;;;;;6214112;23;19997;-49
2021/07/07 06:54:20;;;;;;;3.88;1.50;;;;;;;;;;6214501;23;19997;-48
2021/07/07 06:56:46;;;;;;;5.95;2.00;;;;;;;;;;6214178;23;20007;-48
2021/07/07 06:59:12;;;;;;;4.18;2.00;;;;;;;;;;6213604;23;20005;-48
2021/07/07 07:01:38;;;;;;;2.78;1.70;;;;;;;;;;6214320;23;20361;-51
2021/07/07 07:04:04;;;;;;;4.57;1.88;;;;;;;;;;6213792;23;20004;-48
2021/07/07 07:06:30;;;;;;;3.40;1.92;;;;;;;;;;6213879;23;20090;-48
2021/07/07 07:08:56;;;;;;;6.10;2.35;;;;;;;;;;6213791;23;20082;-49
2021/07/07 07:11:22;;;;;;;6.55;2.13;;;;;;;;;;6214537;23;20083;-48
2021/07/07 07:13:48;;;;;;;3.90;1.90;;;;;;;;;;6214015;23;20012;-48
2021/07/07 07:16:14;;;;;;;6.93;2.03;;;;;;;;;;6214428;23;20003;-51
2021/07/07 07:18:41;;;;;;;3.22;2.30;;;;;;;;;;6213708;23;20613;-48
2021/07/07 07:21:07;;;;;;;4.10;2.15;;;;;;;;;;6214054;23;20024;-48
2021/07/07 07:23:33;;;;;;;3.60;2.22;;;;;;;;;;6214083;23;20047;-48
2021/07/07 07:25:59;;;;;;;3.10;1.98;;;;;;;;;;6214010;23;20032;-47
2021/07/07 07:28:26;;;;;;;4.90;2.00;;;;;;;;;;6212909;23;20035;-47
2021/07/07 07:30:52;;;;;;;6.15;1.92;;;;;;;;;;6213924;23;20059;-48
2021/07/07 07:33:18;;;;;;;4.25;1.98;;;;;;;;;;6213867;23;20313;-47
2021/07/07 07:35:44;;;;;;;2.97;1.90;;;;;;;;;;6213800;23;20004;-49
2021/07/07 07:38:25;;;;;;;5.88;2.55;;;;;;;;;;6214077;23;20037;-47
2021/07/07 07:40:52;;;;;;;6.18;2.40;;;;;;;;;;6214246;23;20031;-48
2021/07/07 07:43:21;;;;;;;4.45;2.40;;;;;;;;;;6213577;23;20036;-49
2021/07/07 07:45:49;;;;;;;3.03;2.15;;;;;;;;;;6212806;23;20004;-48
2021/07/07 07:48:15;;;;;;;5.10;2.60;;;;;;;;;;6213545;23;20059;-48
2021/07/07 07:50:41;;;;;;;6.70;2.80;;;;;;;;;;6213744;23;20040;-47
2021/07/07 07:53:07;;;;;;;4.28;2.40;;;;;;;;;;6214167;23;19996;-49
2021/07/07 07:55:33;;;;;;;5.93;2.80;;;;;;;;;;6213769;23;20028;-50
2021/07/07 07:57:59;;;;;;;6.10;2.50;;;;;;;;;;6212902;23;20012;-52
2021/07/07 08:00:26;;;;;;;4.18;2.50;;;;;;;;;;6213627;23;20001;-52
2021/07/07 08:02:52;;;;;;;4.20;2.20;;;;;;;;;;6213206;23;20012;-48
2021/07/07 08:05:19;;;;;;;7.03;2.40;;;;;;;;;;6214159;23;20009;-49
2021/07/07 08:07:45;;;;;;;4.85;2.38;;;;;;;;;;6213835;23;20317;-51
2021/07/07 08:10:13;;;;;;;3.42;2.30;;;;;;;;;;6213268;23;20035;-51
2021/07/07 08:12:39;;;;;;;5.43;2.55;;;;;;;;;;6214067;23;20005;-47
2021/07/07 08:15:06;;;;;;;7.85;2.40;;;;;;;;;;6213334;23;20000;-47
2021/07/07 08:17:32;;;;;;;5.38;2.17;;;;;;;;;;6213795;23;20035;-48
2021/07/07 08:19:59;;;;;;;4.97;2.40;;;;;;;;;;6215493;23;20019;-48
2021/07/07 08:22:25;;;;;;;3.67;2.35;;;;;;;;;;6215052;23;20445;-48
2021/07/07 08:24:52;;;;;;;5.30;3.15;;;;;;;;;;6215787;23;20313;-48
2021/07/07 08:27:18;;;;;;;7.13;2.83;;;;;;;;;;6215411;23;20004;-48
2021/07/07 08:29:44;;;;;;;5.25;2.58;;;;;;;;;;6214464;23;20028;-48
2021/07/07 08:32:10;;;;;;;3.88;2.30;;;;;;;;;;6214977;23;19996;-48
2021/07/07 08:34:36;;;;;;;6.97;2.95;;;;;;;;;;6214903;23;20008;-47
2021/07/07 08:37:03;;;;;;;4.80;2.60;;;;;;;;;;6215712;23;20001;-47
2021/07/07 08:39:29;;;;;;;6.40;2.88;;;;;;;;;;6215199;23;20015;-49
2021/07/07 08:41:55;;;;;;;3.92;2.03;;;;;;;;;;6215288;23;20445;-49
2021/07/07 08:44:21;;;;;;;3.20;2.15;;;;;;;;;;6215060;23;20038;-49
2021/07/07 08:46:47;;;;;;;3.80;2.53;;;;;;;;;;6216369;23;20306;-49
2021/07/07 08:49:13;;;;;;;3.08;2.03;;;;;;;;;;6215161;23;20492;-50
2021/07/07 08:51:42;;;;;;;3.58;2.05;;;;;;;;;;6214714;23;20039;-49
2021/07/07 08:54:09;;;;;;;5.50;2.33;;;;;;;;;;6215076;23;19992;-51
2021/07/07 08:56:42;;;;;;;4.07;1.73;;;;;;;;;;6215109;23;20075;-48
2021/07/07 08:59:08;;;;;;;5.72;1.85;;;;;;;;;;6214381;23;20059;-50
2021/07/07 09:01:53;;;;;;;4.43;2.17;;;;;;;;;;6215179;23;19997;-50
2021/07/07 09:04:28;;;;;;;3.42;1.85;;;;;;;;;;6214740;23;20004;-49
2021/07/07 09:07:01;;;;;;;9.95;1.98;;;;;;;;;;6215034;23;20000;-48
2021/07/07 09:09:37;;;;;;;6.53;2.83;;;;;;;;;;6187982;23;20008;-48
2021/07/07 09:12:14;;;;;;;4.28;1.88;;;;;;;;;;6214862;23;19996;-48
2021/07/07 09:14:42;;;;;;;2.35;1.40;;;;;;;;;;6215472;23;20004;-48
2021/07/07 09:17:12;;;;;;;1.60;1.30;;;;;;;;;;6214545;23;20012;-48
2021/07/07 09:19:38;;;;;;;3.28;1.50;;;;;;;;;;6215093;23;20004;-47
2021/07/07 09:22:08;;;;;;;3.60;2.10;;;;;;;;;;6215556;23;20298;-48
2021/07/07 09:24:35;;;;;;;3.80;1.80;;;;;;;;;;6214623;23;20005;-47
2021/07/07 09:27:09;;;;;;;4.00;1.73;;;;;;;;;;6215208;23;20348;-49
2021/07/07 09:29:41;;;;;;;4.28;1.55;;;;;;;;;;6213719;23;19997;-47
2021/07/07 09:32:26;;;;;;;3.17;1.60;;;;;;;;;;6214309;23;20359;-49
2021/07/07 09:34:53;;;;;;;3.13;1.23;;;;;;;;;;6215217;23;20425;-48
2021/07/07 09:37:22;;;;;;;2.78;1.55;;;;;;;;;;6214383;23;20103;-47
2021/07/07 09:39:48;;;;;;;3.55;1.92;;;;;;;;;;6214223;23;20058;-48
2021/07/07 09:42:14;;;;;;;3.13;1.70;;;;;;;;;;6215041;23;20397;-50
2021/07/07 09:44:40;;;;;;;3.85;1.67;;;;;;;;;;6214623;23;20004;-47
2021/07/07 09:47:06;;;;;;;3.65;1.67;;;;;;;;;;6213297;23;20406;-49
2021/07/07 09:49:33;;;;;;;5.43;1.95;;;;;;;;;;6214403;23;20118;-47
2021/07/07 09:52:00;;;;;;;6.07;1.67;;;;;;;;;;6214364;23;20000;-49
2021/07/07 09:54:26;;;;;;;3.58;1.80;;;;;;;;;;6214604;23;20032;-48
2021/07/07 09:56:52;;;;;;;4.68;1.60;;;;;;;;;;6215192;23;20001;-52
2021/07/07 09:59:18;;;;;;;2.22;1.40;;;;;;;;;;6214211;23;20417;-50
2021/07/07 10:01:46;;;;;;;3.17;1.63;;;;;;;;;;6213860;23;20008;-51
2021/07/07 10:04:13;;;;;;;3.85;1.65;;;;;;;;;;6214456;23;20001;-54
2021/07/07 10:06:39;;;;;;;4.45;1.60;;;;;;;;;;6214344;23;20008;-53
2021/07/07 10:09:05;;;;;;;4.13;1.40;;;;;;;;;;6214270;23;20000;-48
2021/07/07 10:11:31;;;;;;;3.10;1.42;;;;;;;;;;6214628;23;20008;-54
2021/07/07 10:13:57;;;;;;;1.42;1.10;;;;;;;;;;6214892;23;20338;-49
2021/07/07 10:16:23;;;;;;;2.70;1.23;;;;;;;;;;6214741;23;20587;-49
2021/07/07 10:18:49;;;;;;;2.35;1.45;;;;;;;;;;6214269;23;20488;-51
2021/07/07 10:21:16;;;;;;;1.88;0.80;;;;;;;;;;6214519;23;20009;-48
2021/07/07 10:23:43;;;;;;;2.50;1.52;;;;;;;;;;6214919;23;20024;-49
2021/07/07 10:26:09;;;;;;;5.75;1.70;;;;;;;;;;6214769;23;20028;-48
2021/07/07 10:28:36;;;;;;;6.57;1.50;;;;;;;;;;6214430;23;20352;-49
2021/07/07 10:31:02;;;;;;;2.35;1.15;;;;;;;;;;6214449;23;20024;-51
2021/07/07 10:33:31;;;;;;;2.13;1.25;;;;;;;;;;6214421;23;20000;-48
2021/07/07 10:36:16;;;;;;;5.45;1.50;;;;;;;;;;6214482;23;20322;-51
2021/07/07 10:38:49;;;;;;;2.25;1.70;;;;;;;;;;6214690;23;20005;-51
2021/07/07 10:41:15;;;;;;;2.63;1.70;;;;;;;;;;6214451;23;20032;-50
2021/07/07 10:43:45;;;;;;;2.40;1.40;;;;;;;;;;6214449;23;20001;-52
2021/07/07 10:46:31;;;;;;;2.78;1.63;;;;;;;;;;6214281;23;20001;-48
2021/07/07 10:49:16;;;;;;;5.32;1.58;;;;;;;;;;6212986;23;20443;-54
2021/07/07 10:51:45;;;;;;;1.40;1.00;;;;;;;;;;6214456;23;20005;-50
2021/07/07 10:54:21;;;;;;;2.42;1.48;;;;;;;;;;6215033;23;19997;-51
2021/07/07 10:56:47;;;;;;;2.35;0.90;;;;;;;;;;6214564;23;20004;-50
2021/07/07 10:59:32;;;;;;;2.53;0.82;;;;;;;;;;6214071;23;20040;-50
2021/07/07 11:02:08;;;;;;;1.75;1.00;;;;;;;;;;6214229;23;20004;-53
2021/07/07 11:04:37;;;;;;;1.52;0.90;;;;;;;;;;6215043;23;20013;-55
2021/07/07 11:07:21;;;;;;;2.45;1.00;;;;;;;;;;6214394;23;20066;-49
2021/07/07 11:09:52;;;;;;;1.90;1.00;;;;;;;;;;6214117;23;20068;-51
2021/07/07 11:12:19;;;;;;;1.63;0.98;;;;;;;;;;6214385;23;20303;-49
2021/07/07 11:15:08;;;;;;;1.70;1.00;;;;;;;;;;6214296;23;20047;-49
2021/07/07 11:17:42;;;;;;;1.05;0.80;;;;;;;;;;6194696;23;20095;-50
2021/07/07 11:20:29;;;;;;;1.83;0.75;;;;;;;;;;6214403;23;20240;-49
2021/07/07 11:22:59;;;;;;;3.03;0.93;;;;;;;;;;6214806;23;20066;-51
2021/07/07 11:25:25;;;;;;;2.70;1.00;;;;;;;;;;6214267;23;20015;-50
2021/07/07 11:27:52;;;;;;;1.00;0.80;;;;;;;;;;6214008;23;20011;-50
2021/07/07 11:30:19;;;;;;;1.42;0.93;;;;;;;;;;6214261;23;20075;-51
2021/07/07 11:32:46;;;;;;;1.15;0.82;;;;;;;;;;6214561;23;20043;-52
2021/07/07 11:35:17;;;;;;;1.83;0.90;;;;;;;;;;6214574;23;19997;-51
2021/07/07 11:37:43;;;;;;;1.75;0.73;;;;;;;;;;6213808;23;20008;-53
2021/07/07 11:40:12;;;;;;;1.40;0.70;;;;;;;;;;6214607;23;20036;-49
2021/07/07 11:42:54;;;;;;;2.13;0.55;;;;;;;;;;6214057;23;20008;-50
2021/07/07 11:45:25;;;;;;;1.55;0.70;;;;;;;;;;6214274;23;20027;-50
2021/07/07 11:47:55;;;;;;;1.90;0.95;;;;;;;;;;6213352;23;20005;-48
2021/07/07 11:50:21;;;;;;;2.13;0.93;;;;;;;;;;6214186;23;20421;-49
2021/07/07 11:52:54;;;;;;;1.35;0.80;;;;;;;;;;6214304;23;20000;-48
2021/07/07 11:55:39;;;;;;;1.85;0.77;;;;;;;;;;6216199;23;20011;-47
2021/07/07 11:58:08;;;;;;;2.72;0.68;;;;;;;;;;6215569;23;20000;-48
2021/07/07 12:00:40;;;;;;;0.73;0.52;;;;;;;;;;6216297;23;20001;-48
2021/07/07 12:03:06;;;;;;;4.38;0.95;;;;;;;;;;6215930;23;20033;-48
2021/07/07 12:05:32;;;;;;;1.90;1.00;;;;;;;;;;6216279;23;20005;-48
2021/07/07 12:08:17;;;;;;;1.48;0.80;;;;;;;;;;6215240;23;20083;-48
2021/07/07 12:10:43;;;;;;;3.10;0.90;;;;;;;;;;6215550;23;20005;-48
2021/07/07 12:13:22;;;;;;;4.95;1.65;;;;;;;;;;6215895;23;20000;-48
2021/07/07 12:15:49;;;;;;;1.20;0.52;;;;;;;;;;6215466;23;20461;-48
2021/07/07 12:18:27;;;;;;;2.42;0.73;;;;;;;;;;6215187;23;20325;-47
2021/07/07 12:20:54;;;;;;;2.97;0.70;;;;;;;;;;6215108;23;20059;-47
2021/07/07 12:23:20;;;;;;;2.42;1.00;;;;;;;;;;6216384;23;20008;-50
2021/07/07 12:25:46;;;;;;;0.90;0.70;;;;;;;;;;6216027;23;20071;-48
2021/07/07 12:28:13;;;;;;;2.25;0.50;;;;;;;;;;6214640;23;20357;-48
2021/07/07 12:30:39;;;;;;;1.98;0.90;;;;;;;;;;6188421;23;20015;-49
2021/07/07 12:33:05;;;;;;;2.75;0.75;;;;;;;;;;6215534;23;20366;-47
2021/07/07 12:35:31;;;;;;;1.80;0.90;;;;;;;;;;6215877;23;20028;-51
2021/07/07 12:37:58;;;;;;;2.67;1.00;;;;;;;;;;6214934;23;20012;-49
2021/07/07 12:40:24;;;;;;;1.63;0.80;;;;;;;;;;6188939;23;20012;-49
2021/07/07 12:42:54;;;;;;;1.90;0.80;;;;;;;;;;6215344;23;20685;-49
2021/07/07 12:45:20;;;;;;;1.60;0.82;;;;;;;;;;6215628;23;20067;-51
2021/07/07 12:48:01;;;;;;;1.95;1.08;;;;;;;;;;6214505;23;20417;-48
2021/07/07 12:50:28;;;;;;;2.97;0.90;;;;;;;;;;6214939;23;20410;-48
2021/07/07 12:52:54;;;;;;;1.80;0.73;;;;;;;;;;6215422;23;20024;-48
2021/07/07 12:55:19;;;;;;;6.63;0.88;;;;;;;;;;6215707;23;20000;-48
2021/07/07 12:57:46;;;;;;;2.10;0.80;;;;;;;;;;6215030;23;20004;-48
2021/07/07 13:00:12;;;;;;;1.08;0.90;;;;;;;;;;6215583;23;20087;-48
2021/07/07 13:02:51;;;;;;;1.13;0.93;;;;;;;;;;6214964;23;20058;-48
2021/07/07 13:05:17;;;;;;;2.33;1.17;;;;;;;;;;6213915;23;20449;-49
2021/07/07 13:07:44;;;;;;;2.22;0.90;;;;;;;;;;6214949;23;20009;-49
2021/07/07 13:10:10;;;;;;;1.58;0.77;;;;;;;;;;6215051;23;20353;-49
2021/07/07 13:12:36;;;;;;;1.90;1.08;;;;;;;;;;6215174;23;20004;-48
2021/07/07 13:15:02;;;;;;;2.47;0.75;;;;;;;;;;6215454;23;20009;-48
2021/07/07 13:17:28;;;;;;;2.90;0.90;;;;;;;;;;6215132;23;20005;-47
2021/07/07 13:20:01;;;;;;;2.00;1.05;;;;;;;;;;6214698;23;20000;-48
2021/07/07 13:22:27;;;;;;;2.17;1.05;;;;;;;;;;6215029;23;20005;-48
2021/07/07 13:24:55;;;;;;;1.10;1.00;;;;;;;;;;6214041;23;20054;-48
2021/07/07 13:27:21;;;;;;;1.85;1.15;;;;;;;;;;6215218;23;20024;-50
2021/07/07 13:29:48;;;;;;;1.83;1.10;;;;;;;;;;6215051;23;20000;-48
2021/07/07 13:32:21;;;;;;;0.93;0.70;;;;;;;;;;6215429;23;20076;-48
2021/07/07 13:34:56;;;;;;;1.42;1.10;;;;;;;;;;6215066;23;20008;-51
2021/07/07 13:37:22;;;;;;;3.28;0.98;;;;;;;;;;6215218;23;20004;-51
2021/07/07 13:39:50;;;;;;;1.23;0.73;;;;;;;;;;6214536;23;20414;-50
2021/07/07 13:42:16;;;;;;;2.22;1.08;;;;;;;;;;6215550;23;20597;-49
2021/07/07 13:44:43;;;;;;;2.72;1.00;;;;;;;;;;6214890;23;20015;-50
2021/07/07 13:47:09;;;;;;;1.85;1.08;;;;;;;;;;6214769;23;20008;-48
2021/07/07 13:49:36;;;;;;;3.72;1.38;;;;;;;;;;6213964;23;20008;-53
2021/07/07 13:52:02;;;;;;;1.70;1.13;;;;;;;;;;6215205;23;20047;-51
2021/07/07 13:54:28;;;;;;;1.60;1.30;;;;;;;;;;6214943;23;20306;-53
2021/07/07 13:56:54;;;;;;;2.95;1.25;;;;;;;;;;6214695;23;20008;-49
2021/07/07 13:59:20;;;;;;;2.53;0.95;;;;;;;;;;6214640;23;20332;-49
2021/07/07 14:01:46;;;;;;;2.33;1.00;;;;;;;;;;6215168;23;20055;-49
2021/07/07 14:04:12;;;;;;;3.45;1.10;;;;;;;;;;6214223;23;19997;-53
2021/07/07 14:06:38;;;;;;;2.33;1.00;;;;;;;;;;6214633;23;20003;-49
2021/07/07 14:09:06;;;;;;;1.55;0.63;;;;;;;;;;6213473;23;19996;-49
2021/07/07 14:11:32;;;;;;;1.20;0.77;;;;;;;;;;6214426;23;20032;-52
2021/07/07 14:13:59;;;;;;;1.70;0.40;;;;;;;;;;6214842;23;20008;-50
2021/07/07 14:16:25;;;;;;;1.25;0.60;;;;;;;;;;6214859;23;20413;-51
2021/07/07 14:18:51;;;;;;;0.63;0.52;;;;;;;;;;6213786;23;20437;-49
2021/07/07 14:21:17;;;;;;;1.02;0.60;;;;;;;;;;6214779;23;20007;-50
2021/07/07 14:23:43;;;;;;;1.15;0.60;;;;;;;;;;6214241;23;20001;-51
2021/07/07 14:26:09;;;;;;;1.60;0.63;;;;;;;;;;6214721;23;20334;-50
2021/07/07 14:28:35;;;;;;;1.38;0.88;;;;;;;;;;6214010;23;20001;-50
2021/07/07 14:31:01;;;;;;;2.85;1.10;;;;;;;;;;6214399;23;20047;-49
2021/07/07 14:33:27;;;;;;;2.35;0.80;;;;;;;;;;6214196;23;20432;-49
2021/07/07 14:35:53;;;;;;;0.82;0.60;;;;;;;;;;6214595;23;20004;-51
2021/07/07 14:38:19;;;;;;;1.50;0.65;;;;;;;;;;6213992;23;20016;-49
2021/07/07 14:40:45;;;;;;;0.80;0.70;;;;;;;;;;6214266;23;20004;-51
2021/07/07 14:43:11;;;;;;;1.75;0.90;;;;;;;;;;6214434;23;20127;-49
2021/07/07 14:45:37;;;;;;;2.90;0.60;;;;;;;;;;6213568;23;20081;-49